createdAt,value
2017-12-16T00:00:05.925Z,32.43
2017-12-16T00:02:33.478Z,33.67
2017-12-16T00:05:01.813Z,33.53
2017-12-16T00:07:29.368Z,30.20
2017-12-16T00:09:57.708Z,32.73
2017-12-16T00:12:25.259Z,31.97
2017-12-16T00:14:52.813Z,30.40
2017-12-16T00:17:20.385Z,33.20
2017-12-16T00:19:47.924Z,32.47
2017-12-16T00:22:15.484Z,29.30
2017-12-16T00:24:43.038Z,30.90
2017-12-16T00:27:10.629Z,29.17
2017-12-16T00:29:38.173Z,30.80
2017-12-16T00:32:05.746Z,30.10
2017-12-16T00:34:33.296Z,29.27
2017-12-16T00:37:01.649Z,30.73
2017-12-16T00:39:29.213Z,30.13
2017-12-16T00:41:56.772Z,28.83
2017-12-16T00:44:25.082Z,29.53
2017-12-16T00:46:53.421Z,28.67
2017-12-16T00:49:20.961Z,30.63
2017-12-16T00:51:49.310Z,29.63
2017-12-16T00:54:16.853Z,30.90
2017-12-16T00:56:45.161Z,31.63
2017-12-16T00:59:12.721Z,31.80
2017-12-16T01:01:40.263Z,29.70
2017-12-16T01:04:08.709Z,29.67
2017-12-16T01:06:37.023Z,31.40
2017-12-16T01:09:05.361Z,28.67
2017-12-16T01:11:32.912Z,29.03
2017-12-16T01:14:01.254Z,31.57
2017-12-16T01:16:29.573Z,29.20
2017-12-16T01:18:57.132Z,28.90
2017-12-16T01:21:24.682Z,27.90
2017-12-16T01:23:53.013Z,30.03
2017-12-16T01:26:20.560Z,29.60
2017-12-16T01:28:48.897Z,28.23
2017-12-16T01:31:16.441Z,27.70
2017-12-16T01:33:55.840Z,27.10
2017-12-16T01:36:35.234Z,27.40
2017-12-16T01:39:02.800Z,27.20
2017-12-16T01:41:30.337Z,27.90
2017-12-16T01:43:58.673Z,28.47
2017-12-16T01:46:26.222Z,29.77
2017-12-16T01:48:54.561Z,29.13
2017-12-16T01:51:22.112Z,30.27
2017-12-16T01:53:50.422Z,28.57
2017-12-16T01:56:18.790Z,30.57
2017-12-16T01:58:46.329Z,26.83
2017-12-16T02:01:13.892Z,28.60
2017-12-16T02:03:42.209Z,30.93
2017-12-16T02:06:09.768Z,27.97
2017-12-16T02:08:38.081Z,25.80
2017-12-16T02:11:05.649Z,29.33
2017-12-16T02:13:33.967Z,29.07
2017-12-16T02:16:02.298Z,30.60
2017-12-16T02:18:29.841Z,27.43
2017-12-16T02:20:58.191Z,27.10
2017-12-16T02:23:25.737Z,25.97
2017-12-16T02:25:54.147Z,28.57
2017-12-16T02:28:22.477Z,26.13
2017-12-16T02:30:50.017Z,26.10
2017-12-16T02:33:18.349Z,26.40
2017-12-16T02:35:45.907Z,28.20
2017-12-16T02:38:14.237Z,23.40
2017-12-16T02:40:41.780Z,23.27
2017-12-16T02:43:09.344Z,22.17
2017-12-16T02:45:36.888Z,23.30
2017-12-16T02:48:04.472Z,23.23
2017-12-16T02:50:32.022Z,23.60
2017-12-16T02:53:00.355Z,24.50
2017-12-16T02:55:27.905Z,22.70
2017-12-16T02:57:56.238Z,22.77
2017-12-16T03:00:23.792Z,22.90
2017-12-16T03:02:52.140Z,22.80
2017-12-16T03:05:19.692Z,21.37
2017-12-16T03:07:48.001Z,24.17
2017-12-16T03:10:16.338Z,22.90
2017-12-16T03:12:43.889Z,23.30
2017-12-16T03:15:11.453Z,22.87
2017-12-16T03:17:39.777Z,24.37
2017-12-16T03:20:07.336Z,22.47
2017-12-16T03:22:34.881Z,21.83
2017-12-16T03:25:02.457Z,22.40
2017-12-16T03:27:30.001Z,20.70
2017-12-16T03:29:58.327Z,23.90
2017-12-16T03:32:25.869Z,23.67
2017-12-16T03:34:53.446Z,23.10
2017-12-16T03:37:20.992Z,20.63
2017-12-16T03:39:48.563Z,20.50
2017-12-16T03:42:16.104Z,19.13
2017-12-16T03:44:43.681Z,20.67
2017-12-16T03:47:11.224Z,21.30
2017-12-16T03:49:38.779Z,20.97
2017-12-16T03:52:07.757Z,20.10
2017-12-16T03:54:35.301Z,20.67
2017-12-16T03:57:02.869Z,20.50
2017-12-16T03:59:31.177Z,19.50
2017-12-16T04:01:58.753Z,20.80
2017-12-16T04:04:27.220Z,21.33
2017-12-16T04:06:54.809Z,20.83
2017-12-16T04:09:22.360Z,22.33
2017-12-16T04:11:49.924Z,19.27
2017-12-16T04:14:17.469Z,22.10
2017-12-16T04:16:45.041Z,21.33
2017-12-16T04:19:12.586Z,21.20
2017-12-16T04:21:40.152Z,21.10
2017-12-16T04:24:07.705Z,19.40
2017-12-16T04:26:35.273Z,20.00
2017-12-16T04:29:02.821Z,20.10
2017-12-16T04:31:30.365Z,21.77
2017-12-16T04:33:57.928Z,19.03
2017-12-16T04:36:25.477Z,17.50
2017-12-16T04:38:53.037Z,21.03
2017-12-16T04:41:21.347Z,20.00
2017-12-16T04:43:48.926Z,20.60
2017-12-16T04:46:16.469Z,18.83
2017-12-16T04:48:44.042Z,19.80
2017-12-16T04:51:11.585Z,19.10
2017-12-16T04:53:39.162Z,17.60
2017-12-16T04:56:06.706Z,19.63
2017-12-16T04:58:34.445Z,21.37
2017-12-16T05:01:02.160Z,22.17
2017-12-16T05:03:29.736Z,20.20
2017-12-16T05:05:57.289Z,19.10
2017-12-16T05:08:24.834Z,19.67
2017-12-16T05:10:52.401Z,20.00
2017-12-16T05:13:19.939Z,20.87
2017-12-16T05:15:47.501Z,18.93
2017-12-16T05:18:15.041Z,19.27
2017-12-16T05:20:42.605Z,20.10
2017-12-16T05:23:10.153Z,19.47
2017-12-16T05:25:38.492Z,18.40
2017-12-16T05:28:06.032Z,19.97
2017-12-16T05:30:33.594Z,17.53
2017-12-16T05:33:01.129Z,18.83
2017-12-16T05:35:28.704Z,18.10
2017-12-16T05:37:57.009Z,21.37
2017-12-16T05:40:25.340Z,20.77
2017-12-16T05:42:52.893Z,19.67
2017-12-16T05:45:21.211Z,21.10
2017-12-16T05:47:48.773Z,19.90
2017-12-16T05:50:17.082Z,19.20
2017-12-16T05:52:45.409Z,24.17
2017-12-16T05:55:12.948Z,21.70
2017-12-16T05:57:40.512Z,21.00
2017-12-16T06:00:08.826Z,20.67
2017-12-16T06:02:36.389Z,21.90
2017-12-16T06:05:03.948Z,20.90
2017-12-16T06:07:31.529Z,22.00
2017-12-16T06:09:59.081Z,21.77
2017-12-16T06:12:27.413Z,21.03
2017-12-16T06:14:54.962Z,22.20
2017-12-16T06:17:23.309Z,22.43
2017-12-16T06:19:50.854Z,20.60
2017-12-16T06:22:19.173Z,23.03
2017-12-16T06:24:46.741Z,20.90
2017-12-16T06:27:15.146Z,21.00
2017-12-16T06:29:42.733Z,23.03
2017-12-16T06:32:11.045Z,20.97
2017-12-16T06:34:38.620Z,22.73
2017-12-16T06:37:06.930Z,21.30
2017-12-16T06:39:34.497Z,24.53
2017-12-16T06:42:02.812Z,22.53
2017-12-16T06:44:31.153Z,23.17
2017-12-16T06:46:58.699Z,24.33
2017-12-16T06:49:26.283Z,23.77
2017-12-16T06:51:54.588Z,23.23
2017-12-16T06:54:22.929Z,23.00
2017-12-16T06:56:50.473Z,25.27
2017-12-16T06:59:18.809Z,23.33
2017-12-16T07:01:46.348Z,22.57
2017-12-16T07:04:14.654Z,24.40
2017-12-16T07:06:42.984Z,23.20
2017-12-16T07:09:10.528Z,25.77
2017-12-16T07:11:38.869Z,23.90
2017-12-16T07:14:07.219Z,23.77
2017-12-16T07:16:34.801Z,23.80
2017-12-16T07:19:02.352Z,23.77
2017-12-16T07:21:29.917Z,26.97
2017-12-16T07:23:57.462Z,25.47
2017-12-16T07:26:25.025Z,25.33
2017-12-16T07:28:52.568Z,27.67
2017-12-16T07:31:20.133Z,25.17
2017-12-16T07:33:48.445Z,24.67
2017-12-16T07:36:16.026Z,27.40
2017-12-16T07:38:44.334Z,26.17
2017-12-16T07:41:11.902Z,24.33
2017-12-16T07:43:40.229Z,27.33
2017-12-16T07:46:07.797Z,25.83
2017-12-16T07:48:36.130Z,26.00
2017-12-16T07:51:03.679Z,27.23
2017-12-16T07:53:32.067Z,25.93
2017-12-16T07:56:00.390Z,26.00
2017-12-16T07:58:27.961Z,28.80
2017-12-16T08:00:56.298Z,25.40
2017-12-16T08:03:23.863Z,24.33
2017-12-16T08:05:51.408Z,26.90
2017-12-16T08:08:18.971Z,27.37
2017-12-16T08:10:46.517Z,25.13
2017-12-16T08:13:14.088Z,23.80
2017-12-16T08:15:42.401Z,25.47
2017-12-16T08:18:10.708Z,27.93
2017-12-16T08:20:38.280Z,26.17
2017-12-16T08:23:06.588Z,26.47
2017-12-16T08:25:34.157Z,28.10
2017-12-16T08:28:02.465Z,24.70
2017-12-16T08:30:30.798Z,26.97
2017-12-16T08:32:58.340Z,25.10
2017-12-16T08:35:25.903Z,25.40
2017-12-16T08:37:53.449Z,26.30
2017-12-16T08:40:21.013Z,24.27
2017-12-16T08:42:48.557Z,26.37
2017-12-16T08:45:16.125Z,24.93
2017-12-16T08:47:43.672Z,24.10
2017-12-16T08:50:11.232Z,24.57
2017-12-16T08:52:39.552Z,22.73
2017-12-16T08:55:07.130Z,26.00
2017-12-16T08:57:34.693Z,22.57
2017-12-16T09:00:03.005Z,22.73
2017-12-16T09:02:31.334Z,26.13
2017-12-16T09:04:58.886Z,25.20
2017-12-16T09:07:26.451Z,26.10
2017-12-16T09:09:54.002Z,26.87
2017-12-16T09:12:21.572Z,26.43
2017-12-16T09:14:49.133Z,27.20
2017-12-16T09:17:17.502Z,27.60
2017-12-16T09:19:45.070Z,25.27
2017-12-16T09:22:12.658Z,28.77
2017-12-16T09:24:40.197Z,27.70
2017-12-16T09:27:07.797Z,29.40
2017-12-16T09:29:35.341Z,28.77
2017-12-16T09:32:02.904Z,27.93
2017-12-16T09:34:30.488Z,29.40
2017-12-16T09:36:58.812Z,29.47
2017-12-16T09:39:26.361Z,28.30
2017-12-16T09:41:53.942Z,27.60
2017-12-16T09:44:21.488Z,30.43
2017-12-16T09:46:49.128Z,31.20
2017-12-16T09:49:16.717Z,28.37
2017-12-16T09:51:44.291Z,30.47
2017-12-16T09:54:11.941Z,29.00
2017-12-16T09:56:39.493Z,31.20
2017-12-16T09:59:07.833Z,28.23
2017-12-16T10:01:35.395Z,29.50
2017-12-16T10:04:02.968Z,30.80
2017-12-16T10:06:31.279Z,29.03
2017-12-16T10:08:59.621Z,27.67
2017-12-16T10:11:27.513Z,30.00
2017-12-16T10:13:55.112Z,28.73
2017-12-16T10:16:22.664Z,26.80
2017-12-16T10:18:50.229Z,28.63
2017-12-16T10:21:18.540Z,24.37
2017-12-16T10:23:46.113Z,29.90
2017-12-16T10:26:14.420Z,29.30
2017-12-16T10:28:42.724Z,27.73
2017-12-16T10:31:10.285Z,28.00
2017-12-16T10:33:38.592Z,30.17
2017-12-16T10:36:06.925Z,28.97
2017-12-16T10:38:34.485Z,28.63
2017-12-16T10:41:02.816Z,28.73
2017-12-16T10:43:30.366Z,28.70
2017-12-16T10:45:58.705Z,29.00
2017-12-16T10:48:26.258Z,26.93
2017-12-16T10:50:54.603Z,24.83
2017-12-16T10:53:22.154Z,26.83
2017-12-16T10:55:49.730Z,26.73
2017-12-16T10:58:18.056Z,23.43
2017-12-16T11:00:51.253Z,23.40
2017-12-16T11:03:19.573Z,22.70
2017-12-16T11:05:47.954Z,23.97
2017-12-16T11:08:16.276Z,21.67
2017-12-16T11:10:44.066Z,21.80
2017-12-16T11:13:11.633Z,22.23
2017-12-16T11:15:39.181Z,22.60
2017-12-16T11:18:06.816Z,23.93
2017-12-16T11:20:34.376Z,22.03
2017-12-16T11:23:02.711Z,21.87
2017-12-16T11:25:30.289Z,20.37
2017-12-16T11:27:57.860Z,21.10
2017-12-16T11:30:25.405Z,21.93
2017-12-16T11:32:53.019Z,19.67
2017-12-16T11:35:21.449Z,21.70
2017-12-16T11:37:49.033Z,21.30
2017-12-16T11:40:16.576Z,20.93
2017-12-16T11:42:44.136Z,22.10
2017-12-16T11:45:11.676Z,20.07
2017-12-16T11:47:39.246Z,20.70
2017-12-16T11:50:07.564Z,20.07
2017-12-16T11:52:35.141Z,21.57
2017-12-16T11:55:02.739Z,24.03
2017-12-16T11:57:30.282Z,22.40
2017-12-16T11:59:57.851Z,23.40
2017-12-16T12:02:25.398Z,21.67
2017-12-16T12:04:52.960Z,20.50
2017-12-16T12:07:20.517Z,22.60
2017-12-16T12:09:48.081Z,23.90
2017-12-16T12:12:15.629Z,20.13
2017-12-16T12:14:43.228Z,22.33
2017-12-16T12:17:10.778Z,21.50
2017-12-16T12:19:39.110Z,21.97
2017-12-16T12:22:06.673Z,22.97
2017-12-16T12:24:34.242Z,22.57
2017-12-16T12:27:01.818Z,22.50
2017-12-16T12:29:29.386Z,23.80
2017-12-16T12:31:56.929Z,22.10
2017-12-16T12:34:24.517Z,22.70
2017-12-16T12:36:52.068Z,23.07
2017-12-16T12:39:20.380Z,24.07
2017-12-16T12:41:48.713Z,24.10
2017-12-16T12:44:16.263Z,21.40
2017-12-16T12:46:44.644Z,23.83
2017-12-16T12:49:12.997Z,23.50
2017-12-16T12:51:40.697Z,21.60
2017-12-16T12:54:08.326Z,22.93
2017-12-16T12:56:36.664Z,22.47
2017-12-16T12:59:04.214Z,23.63
2017-12-16T13:01:32.545Z,25.43
2017-12-16T13:04:00.105Z,26.43
2017-12-16T13:06:28.436Z,22.27
2017-12-16T13:08:55.985Z,25.00
2017-12-16T13:11:24.343Z,23.13
2017-12-16T13:13:51.887Z,24.57
2017-12-16T13:16:20.212Z,24.03
2017-12-16T13:18:48.546Z,22.30
2017-12-16T13:21:16.108Z,23.10
2017-12-16T13:23:43.650Z,22.37
2017-12-16T13:26:11.998Z,23.40
2017-12-16T13:28:39.546Z,22.40
2017-12-16T13:31:07.101Z,23.30
2017-12-16T13:33:34.680Z,23.00
2017-12-16T13:36:02.232Z,21.03
2017-12-16T13:38:29.799Z,24.03
2017-12-16T13:40:57.344Z,20.43
2017-12-16T13:43:24.909Z,23.33
2017-12-16T13:45:52.461Z,22.63
2017-12-16T13:48:20.030Z,21.00
2017-12-16T13:50:47.579Z,21.70
2017-12-16T13:53:15.170Z,20.90
2017-12-16T13:55:43.484Z,21.80
2017-12-16T13:58:11.898Z,22.30
2017-12-16T14:00:39.516Z,20.77
2017-12-16T14:03:07.913Z,19.37
2017-12-16T14:05:35.481Z,20.50
2017-12-16T14:08:03.028Z,21.67
2017-12-16T14:10:31.357Z,20.90
2017-12-16T14:12:58.904Z,23.30
2017-12-16T14:15:26.477Z,21.40
2017-12-16T14:17:54.023Z,21.67
2017-12-16T14:20:21.586Z,21.70
2017-12-16T14:22:49.132Z,20.80
2017-12-16T14:25:16.695Z,23.23
2017-12-16T14:27:44.240Z,22.63
2017-12-16T14:30:12.568Z,22.57
2017-12-16T14:32:40.186Z,22.30
2017-12-16T14:35:07.784Z,22.67
2017-12-16T14:37:35.324Z,21.90
2017-12-16T14:40:02.910Z,22.83
2017-12-16T14:42:30.461Z,22.80
2017-12-16T14:44:58.041Z,23.50
2017-12-16T14:47:26.550Z,22.60
2017-12-16T14:49:54.162Z,23.37
2017-12-16T14:52:21.793Z,23.43
2017-12-16T14:54:50.302Z,24.80
2017-12-16T14:57:18.911Z,22.57
2017-12-16T14:59:46.712Z,24.37
2017-12-16T15:02:15.213Z,24.70
2017-12-16T15:04:43.680Z,23.70
2017-12-16T15:07:11.527Z,24.90
2017-12-16T15:09:39.313Z,25.57
2017-12-16T15:12:07.244Z,23.00
2017-12-16T15:14:35.764Z,22.90
2017-12-16T15:17:03.551Z,24.40
2017-12-16T15:19:31.101Z,22.87
2017-12-16T15:21:58.733Z,24.40
2017-12-16T15:24:26.329Z,22.87
2017-12-16T15:26:53.940Z,21.90
2017-12-16T15:29:21.512Z,23.07
2017-12-16T15:31:49.060Z,20.73
2017-12-16T15:34:16.626Z,21.80
2017-12-16T15:36:44.173Z,23.13
2017-12-16T15:39:12.552Z,21.97
2017-12-16T15:41:40.093Z,22.93
2017-12-16T15:44:07.660Z,21.83
2017-12-16T15:46:35.205Z,19.90
2017-12-16T15:49:02.770Z,20.80
2017-12-16T15:51:30.373Z,22.00
2017-12-16T15:53:57.949Z,20.97
2017-12-16T15:56:25.506Z,19.50
2017-12-16T15:58:53.049Z,19.27
2017-12-16T16:01:21.385Z,18.17
2017-12-16T16:03:48.929Z,20.17
2017-12-16T16:06:17.265Z,20.60
2017-12-16T16:08:44.822Z,19.67
2017-12-16T16:11:13.152Z,20.27
2017-12-16T16:13:40.704Z,17.77
2017-12-16T16:16:09.040Z,19.50
2017-12-16T16:18:36.584Z,18.50
2017-12-16T16:21:04.913Z,18.80
2017-12-16T16:23:32.465Z,20.20
2017-12-16T16:26:00.801Z,20.50
2017-12-16T16:28:28.354Z,19.93
2017-12-16T16:30:56.696Z,21.23
2017-12-16T16:33:24.241Z,19.43
2017-12-16T16:35:52.557Z,19.57
2017-12-16T16:38:20.940Z,17.53
2017-12-16T16:40:48.914Z,19.70
2017-12-16T16:43:16.485Z,17.43
2017-12-16T16:45:44.031Z,16.77
2017-12-16T16:48:11.597Z,19.00
2017-12-16T16:50:39.920Z,17.93
2017-12-16T16:53:07.496Z,18.70
2017-12-16T16:55:35.077Z,17.70
2017-12-16T16:58:02.647Z,19.87
2017-12-16T17:00:30.969Z,17.63
2017-12-16T17:02:58.537Z,19.00
2017-12-16T17:05:26.858Z,20.20
2017-12-16T17:07:54.428Z,18.97
2017-12-16T17:10:22.736Z,19.97
2017-12-16T17:12:51.097Z,19.63
2017-12-16T17:15:18.637Z,19.37
2017-12-16T17:17:46.182Z,21.20
2017-12-16T17:20:13.755Z,19.70
2017-12-16T17:22:41.304Z,18.37
2017-12-16T17:25:08.879Z,19.67
2017-12-16T17:27:36.425Z,17.77
2017-12-16T17:30:04.757Z,18.30
2017-12-16T17:32:32.305Z,19.60
2017-12-16T17:34:59.872Z,17.33
2017-12-16T17:37:27.819Z,19.20
2017-12-16T17:39:55.381Z,18.60
2017-12-16T17:42:23.685Z,17.40
2017-12-16T17:44:52.000Z,18.73
2017-12-16T17:47:19.536Z,17.90
2017-12-16T17:49:47.112Z,18.90
2017-12-16T17:52:14.656Z,17.97
2017-12-16T17:54:42.210Z,18.07
2017-12-16T17:57:09.759Z,16.90
2017-12-16T17:59:38.194Z,16.30
2017-12-16T18:02:06.526Z,15.93
2017-12-16T18:04:34.121Z,17.37
2017-12-16T18:07:01.661Z,17.40
2017-12-16T18:09:29.195Z,16.30
2017-12-16T18:11:56.754Z,17.33
2017-12-16T18:14:24.319Z,17.80
2017-12-16T18:16:52.649Z,16.47
2017-12-16T18:19:20.245Z,16.63
2017-12-16T18:21:48.540Z,16.60
2017-12-16T18:24:16.094Z,15.00
2017-12-16T18:26:44.420Z,15.47
2017-12-16T18:29:11.951Z,13.53
2017-12-16T18:31:39.524Z,14.20
2017-12-16T18:34:07.063Z,14.23
2017-12-16T18:36:34.630Z,13.03
2017-12-16T18:39:02.945Z,10.53
2017-12-16T18:41:31.283Z,11.80
2017-12-16T18:43:58.828Z,12.70
2017-12-16T18:46:27.147Z,15.13
2017-12-16T18:48:54.776Z,14.43
2017-12-16T18:51:22.336Z,14.30
2017-12-16T18:53:49.868Z,15.00
2017-12-16T18:56:17.431Z,16.23
2017-12-16T18:58:44.972Z,15.40
2017-12-16T19:01:12.507Z,16.33
2017-12-16T19:03:40.078Z,17.97
2017-12-16T19:06:07.624Z,17.70
2017-12-16T19:08:35.180Z,17.33
2017-12-16T19:11:03.480Z,17.33
2017-12-16T19:13:31.809Z,19.30
2017-12-16T19:15:59.364Z,17.13
2017-12-16T19:18:27.694Z,13.80
2017-12-16T19:20:55.236Z,15.60
2017-12-16T19:23:22.806Z,12.67
2017-12-16T19:25:50.342Z,14.10
2017-12-16T19:28:17.904Z,12.87
2017-12-16T19:30:46.212Z,13.97
2017-12-16T19:33:14.540Z,14.13
2017-12-16T19:35:42.086Z,15.80
2017-12-16T19:38:10.412Z,15.17
2017-12-16T19:40:37.960Z,16.93
2017-12-16T19:43:05.511Z,15.23
2017-12-16T19:45:33.053Z,15.67
2017-12-16T19:48:00.637Z,16.73
2017-12-16T19:50:28.944Z,15.77
2017-12-16T19:52:56.494Z,14.73
2017-12-16T19:55:24.063Z,15.13
2017-12-16T19:57:51.612Z,15.37
2017-12-16T20:00:19.173Z,14.00
2017-12-16T20:02:47.488Z,16.63
2017-12-16T20:05:15.060Z,17.00
2017-12-16T20:07:43.369Z,17.80
2017-12-16T20:10:10.937Z,15.73
2017-12-16T20:12:39.264Z,17.23
2017-12-16T20:15:06.871Z,17.47
2017-12-16T20:17:34.409Z,16.50
2017-12-16T20:20:02.823Z,16.03
2017-12-16T20:22:30.377Z,16.20
2017-12-16T20:24:58.812Z,16.47
2017-12-16T20:27:26.356Z,16.00
2017-12-16T20:29:53.914Z,18.40
2017-12-16T20:32:21.534Z,17.80
2017-12-16T20:34:49.100Z,17.90
2017-12-16T20:37:16.678Z,16.90
2017-12-16T20:39:44.226Z,15.93
2017-12-16T20:42:11.804Z,18.37
2017-12-16T20:44:39.341Z,16.00
2017-12-16T20:47:06.915Z,15.30
2017-12-16T20:49:34.469Z,17.90
2017-12-16T20:52:02.029Z,15.87
2017-12-16T20:54:30.335Z,16.47
2017-12-16T20:56:58.668Z,15.00
2017-12-16T20:59:26.265Z,16.17
2017-12-16T21:01:53.841Z,15.53
2017-12-16T21:04:21.392Z,15.70
2017-12-16T21:06:49.713Z,15.27
2017-12-16T21:09:17.277Z,13.60
2017-12-16T21:11:45.596Z,13.80
2017-12-16T21:14:13.152Z,12.90
2017-12-16T21:16:41.471Z,12.80
2017-12-16T21:19:09.042Z,12.90
2017-12-16T21:21:37.369Z,12.70
2017-12-16T21:24:04.948Z,12.93
2017-12-16T21:26:32.489Z,12.40
2017-12-16T21:29:00.051Z,13.23
2017-12-16T21:31:27.630Z,11.40
2017-12-16T21:33:55.212Z,13.00
2017-12-16T21:36:22.755Z,12.53
2017-12-16T21:38:51.095Z,12.90
2017-12-16T21:41:18.645Z,13.10
2017-12-16T21:43:46.976Z,12.80
2017-12-16T21:46:14.525Z,12.27
2017-12-16T21:48:42.869Z,13.37
2017-12-16T21:51:10.425Z,13.40
2017-12-16T21:53:38.344Z,11.37
2017-12-16T21:56:05.909Z,11.50
2017-12-16T21:58:33.452Z,12.70
2017-12-16T22:01:01.044Z,13.87
2017-12-16T22:03:29.365Z,13.07
2017-12-16T22:05:56.950Z,12.10
2017-12-16T22:08:25.273Z,12.50
2017-12-16T22:10:52.836Z,12.63
2017-12-16T22:13:21.237Z,12.20
2017-12-16T22:15:49.651Z,12.83
2017-12-16T22:18:17.198Z,11.00
2017-12-16T22:20:44.761Z,12.40
2017-12-16T22:23:12.305Z,14.37
2017-12-16T22:25:39.873Z,12.87
2017-12-16T22:28:08.182Z,13.40
2017-12-16T22:30:35.905Z,15.70
2017-12-16T22:33:03.457Z,14.33
2017-12-16T22:35:31.051Z,12.90
2017-12-16T22:37:59.092Z,12.93
2017-12-16T22:40:26.715Z,13.30
2017-12-16T22:42:55.075Z,14.03
2017-12-16T22:45:22.827Z,12.63
2017-12-16T22:47:50.416Z,14.27
2017-12-16T22:50:17.962Z,13.93
2017-12-16T22:52:45.660Z,13.23
2017-12-16T22:55:13.319Z,13.33
2017-12-16T22:57:40.931Z,11.67
2017-12-16T23:00:10.237Z,12.20
2017-12-16T23:02:38.651Z,10.93
2017-12-16T23:05:06.175Z,12.30
2017-12-16T23:07:33.742Z,11.93
2017-12-16T23:10:01.973Z,11.20
2017-12-16T23:12:29.528Z,11.07
2017-12-16T23:14:57.911Z,9.80
2017-12-16T23:17:26.328Z,10.63
2017-12-16T23:19:53.977Z,9.50
2017-12-16T23:22:21.525Z,10.23
2017-12-16T23:24:49.172Z,9.50
2017-12-16T23:27:16.781Z,10.40
2017-12-16T23:29:45.112Z,8.47
2017-12-16T23:32:12.660Z,10.57
2017-12-16T23:34:41.001Z,9.80
2017-12-16T23:37:08.544Z,8.70
2017-12-16T23:39:36.877Z,11.23
2017-12-16T23:42:04.424Z,10.10
2017-12-16T23:44:32.761Z,11.53
2017-12-16T23:47:00.309Z,10.37
2017-12-16T23:49:27.957Z,10.13
2017-12-16T23:51:55.526Z,9.47
2017-12-16T23:54:23.090Z,9.53
2017-12-16T23:56:51.444Z,10.50
2017-12-16T23:59:19.021Z,10.20
